Time;durP1;ratioP1;P1;durP2;ratioP2;P2;SDS_P1;SDS_P2;PMS_P1;PMS_P2;Temp;Humidity;BMP_temperature;BMP_pressure;BME280_temperature;BME280_humidity;BME280_pressure;Samples;Min_cycle;Max_cycle;Signal;HPM_P1;HPM_P2
2024/04/17 00:00:51;;;;;;;2.70;2.47;;;;;;;6.48;86.99;97931.03;5460540;26;43105;-75
2024/04/17 00:03:21;;;;;;;2.67;2.47;;;;;;;6.62;86.80;97938.09;5493106;26;42316;-75
2024/04/17 00:05:47;;;;;;;1.80;1.70;;;;;;;6.55;86.66;97921.00;5460605;26;39043;-75
2024/04/17 00:08:17;;;;;;;2.30;2.10;;;;;;;6.66;86.87;97918.56;5493126;26;41607;-75
2024/04/17 00:10:46;;;;;;;2.37;2.17;;;;;;;6.66;87.05;97929.09;5460051;26;41552;-75
2024/04/17 00:13:15;;;;;;;2.40;2.20;;;;;;;6.67;87.15;97930.78;5491350;26;42179;-75
2024/04/17 00:15:41;;;;;;;2.77;2.20;;;;;;;6.78;87.17;97946.75;5492650;26;40373;-76
2024/04/17 00:18:11;;;;;;;2.60;2.40;;;;;;;6.66;87.49;97923.81;5490998;26;41490;-75
2024/04/17 00:20:37;;;;;;;2.30;2.00;;;;;;;6.74;86.99;97942.59;5492508;26;42713;-76
2024/04/17 00:23:06;;;;;;;2.60;1.83;;;;;;;6.61;86.85;97925.88;5491019;26;40818;-75
2024/04/17 00:25:36;;;;;;;2.73;2.43;;;;;;;6.69;87.06;97949.06;5492606;26;41003;-75
2024/04/17 00:28:05;;;;;;;3.17;2.67;;;;;;;6.69;87.31;97947.28;5492525;26;41692;-75
2024/04/17 00:30:34;;;;;;;2.63;2.43;;;;;;;6.69;87.39;97949.91;5459883;26;44027;-75
2024/04/17 00:33:01;;;;;;;2.73;2.53;;;;;;;6.63;87.19;97937.16;5490772;26;40981;-75
2024/04/17 00:35:30;;;;;;;4.43;2.80;;;;;;;6.71;87.36;97952.47;5460211;26;38699;-75
2024/04/17 00:37:56;;;;;;;2.60;2.40;;;;;;;6.60;87.25;97924.19;5490627;26;41751;-75
2024/04/17 00:40:25;;;;;;;2.17;1.97;;;;;;;6.60;87.11;97924.19;5490438;26;43983;-75
2024/04/17 00:42:52;;;;;;;2.80;2.23;;;;;;;6.75;87.49;97944.28;5492165;26;43234;-75
2024/04/17 00:45:29;;;;;;;2.83;2.63;;;;;;;6.70;87.81;97932.34;5490213;26;41162;-75
2024/04/17 00:47:56;;;;;;;3.47;3.03;;;;;;;6.55;87.82;97899.97;5491402;26;42683;-75
2024/04/17 00:50:25;;;;;;;3.57;3.27;;;;;;;6.76;87.93;97938.09;5492170;26;43766;-76
2024/04/17 00:52:52;;;;;;;3.43;3.13;;;;;;;6.72;87.87;97928.69;5492178;26;42209;-75
2024/04/17 00:55:22;;;;;;;3.40;3.10;;;;;;;6.63;88.11;97908.22;5490208;26;42289;-76
2024/04/17 00:57:49;;;;;;;4.77;3.20;;;;;;;6.80;87.78;97936.09;5490400;26;41655;-75
2024/04/17 01:00:19;;;;;;;3.30;2.80;;;;;;;6.94;87.47;97943.13;5459744;26;43120;-75
2024/04/17 01:02:48;;;;;;;3.03;2.77;;;;;;;7.01;87.32;97945.31;5459727;26;41516;-75
2024/04/17 01:05:17;;;;;;;3.73;3.33;;;;;;;7.07;87.15;97939.66;5490136;26;38770;-75
2024/04/17 01:07:45;;;;;;;4.57;3.47;;;;;;;7.08;86.76;97938.69;5459396;26;40717;-75
2024/04/17 01:10:14;;;;;;;2.83;2.57;;;;;;;7.11;86.47;97932.41;5491464;26;42887;-75
2024/04/17 01:12:41;;;;;;;3.20;2.90;;;;;;;7.07;86.49;97917.75;5490091;26;43275;-75
2024/04/17 01:15:12;;;;;;;3.40;2.90;;;;;;;7.20;86.38;97929.19;5489809;26;40175;-75
2024/04/17 01:17:38;;;;;;;3.13;2.77;;;;;;;7.25;86.57;97932.38;5490041;26;41740;-75
2024/04/17 01:20:11;;;;;;;3.13;2.83;;;;;;;7.25;86.34;97926.25;5491555;26;42725;-76
2024/04/17 01:22:38;;;;;;;3.27;2.93;;;;;;;7.21;86.49;97915.06;5489892;26;40996;-75
2024/04/17 01:25:10;;;;;;;2.97;2.67;;;;;;;7.14;86.45;97898.00;5489612;26;38721;-75
2024/04/17 01:27:36;;;;;;;3.20;2.90;;;;;;;7.31;86.24;97921.44;5491415;26;41762;-75
2024/04/17 01:30:06;;;;;;;2.83;2.60;;;;;;;7.40;86.07;97939.31;5458957;26;41689;-75
2024/04/17 01:32:33;;;;;;;4.00;2.97;;;;;;;7.32;85.89;97917.03;5489254;26;42108;-76
2024/04/17 01:35:02;;;;;;;3.10;2.70;;;;;;;7.31;85.67;97923.22;5491078;26;42148;-76
2024/04/17 01:37:28;;;;;;;3.23;2.93;;;;;;;7.42;85.45;97936.53;5489324;26;41408;-75
2024/04/17 01:39:57;;;;;;;3.23;2.67;;;;;;;7.35;85.58;97917.69;5458154;26;41253;-76
2024/04/17 01:42:26;;;;;;;3.23;2.70;;;;;;;7.38;85.22;97920.13;5489362;26;42681;-75
2024/04/17 01:44:55;;;;;;;2.70;2.50;;;;;;;7.40;85.22;97920.88;5488854;26;39820;-76
2024/04/17 01:47:22;;;;;;;3.67;2.93;;;;;;;7.49;85.23;97940.50;5489210;26;40398;-76
2024/04/17 01:49:51;;;;;;;3.27;2.97;;;;;;;7.37;85.30;97921.06;5490589;26;42852;-75
2024/04/17 01:52:17;;;;;;;3.70;3.40;;;;;;;7.36;85.22;97911.47;5490876;26;42348;-75
2024/04/17 01:54:47;;;;;;;3.97;3.17;;;;;;;7.35;85.42;97917.69;5488947;26;41003;-75
2024/04/17 01:57:13;;;;;;;2.77;2.53;;;;;;;7.50;85.37;97940.41;5488744;26;42833;-75
2024/04/17 01:59:45;;;;;;;3.67;3.30;;;;;;;7.49;85.93;97936.06;5489706;26;43849;-76
2024/04/17 02:02:11;;;;;;;4.67;4.03;;;;;;;7.47;85.85;97937.94;5462374;26;40793;-75
2024/04/17 02:04:40;;;;;;;4.00;3.60;;;;;;;7.12;86.29;97881.44;5494030;26;39922;-75
2024/04/17 02:07:07;;;;;;;5.03;4.17;;;;;;;7.48;85.82;97944.06;5494056;26;42863;-75
2024/04/17 02:09:36;;;;;;;4.43;3.73;;;;;;;7.33;85.79;97924.81;5492136;26;43060;-76
2024/04/17 02:12:03;;;;;;;4.77;3.87;;;;;;;7.47;86.27;97948.50;5492420;26;42264;-76
2024/04/17 02:14:32;;;;;;;3.50;3.20;;;;;;;7.48;85.80;97950.19;5492217;26;38813;-76
2024/04/17 02:17:01;;;;;;;3.97;3.57;;;;;;;7.50;86.12;97943.03;5494235;26;41405;-75
2024/04/17 02:19:31;;;;;;;4.67;3.83;;;;;;;7.51;86.13;97947.34;5493915;26;43809;-75
2024/04/17 02:21:57;;;;;;;4.00;3.40;;;;;;;7.44;86.12;97932.88;5491772;26;42180;-76
2024/04/17 02:24:26;;;;;;;6.30;4.43;;;;;;;7.44;86.11;97932.88;5491959;26;39643;-75
2024/04/17 02:26:53;;;;;;;4.73;4.17;;;;;;;7.48;86.02;97944.91;5492048;26;41749;-75
2024/04/17 02:29:22;;;;;;;4.17;3.77;;;;;;;7.20;85.74;97894.94;5493671;26;43984;-76
2024/04/17 02:31:48;;;;;;;7.87;5.10;;;;;;;7.48;85.85;97937.00;5491984;26;42165;-76
2024/04/17 02:34:20;;;;;;;3.57;3.27;;;;;;;7.50;85.77;97937.75;5492293;26;41457;-75
2024/04/17 02:36:46;;;;;;;5.50;4.77;;;;;;;7.53;86.20;97947.25;5494067;26;41793;-75
2024/04/17 02:43:30;;;;;;;5.13;4.57;;;;;;;7.40;86.37;97934.03;5494219;26;42294;-75
2024/04/17 02:45:56;;;;;;;5.00;4.33;;;;;;;7.54;86.39;97955.03;5491583;26;40379;-75
2024/04/17 02:48:25;;;;;;;4.27;3.77;;;;;;;7.39;85.76;97923.59;5491922;26;40295;-75
2024/04/17 02:50:54;;;;;;;5.70;4.40;;;;;;;7.60;85.93;97956.44;5493432;26;44023;-76
2024/04/17 02:53:24;;;;;;;5.80;4.93;;;;;;;7.50;86.08;97932.50;5491819;26;43045;-75
2024/04/17 02:55:50;;;;;;;4.80;3.93;;;;;;;7.61;86.14;97949.38;5461040;26;41128;-76
2024/04/17 02:58:19;;;;;;;5.10;4.60;;;;;;;7.62;86.45;97945.81;5493671;26;42706;-75
2024/04/17 03:00:46;;;;;;;4.77;4.03;;;;;;;7.63;85.77;97947.50;5493209;26;43731;-75
2024/04/17 03:03:15;;;;;;;6.07;5.07;;;;;;;7.60;86.22;97945.06;5492195;26;43308;-75
2024/04/17 03:05:41;;;;;;;5.17;4.17;;;;;;;7.64;86.01;97955.31;5493391;26;39876;-77
2024/04/17 03:08:13;;;;;;;5.73;4.27;;;;;;;7.65;86.55;97956.16;5493348;26;41733;-75
2024/04/17 03:10:39;;;;;;;5.80;5.20;;;;;;;7.61;86.39;97952.88;5492808;26;42562;-76
2024/04/17 03:13:08;;;;;;;5.60;4.60;;;;;;;7.62;86.19;97956.34;5491680;26;43375;-75
2024/04/17 03:15:35;;;;;;;5.00;4.50;;;;;;;7.62;86.34;97961.63;5493730;26;41979;-76
2024/04/17 03:18:04;;;;;;;6.43;4.60;;;;;;;7.63;86.15;97965.94;5491719;26;39959;-75
2024/04/17 03:20:31;;;;;;;4.97;4.17;;;;;;;7.57;86.17;97957.47;5491312;26;44352;-77
2024/04/17 03:23:00;;;;;;;4.73;4.33;;;;;;;7.57;86.31;97962.75;5491636;26;41988;-76
2024/04/17 03:25:33;;;;;;;5.73;4.60;;;;;;;7.66;86.03;97963.97;5491527;26;40088;-75
2024/04/17 03:28:02;;;;;;;5.17;4.43;;;;;;;7.66;85.84;97963.97;5493305;26;42583;-75
2024/04/17 03:30:28;;;;;;;5.20;4.33;;;;;;;7.40;86.14;97920.03;5460655;26;42841;-76
2024/04/17 03:32:57;;;;;;;4.37;3.97;;;;;;;7.70;86.10;97964.59;5491618;26;40962;-75
2024/04/17 03:35:24;;;;;;;5.10;4.60;;;;;;;7.71;86.05;97966.28;5491247;26;41435;-76
2024/04/17 03:37:53;;;;;;;4.33;3.83;;;;;;;7.72;85.79;97971.47;5491222;26;41509;-76
2024/04/17 03:40:22;;;;;;;6.27;5.37;;;;;;;7.62;86.12;97951.09;5492119;26;43682;-77
2024/04/17 03:42:53;;;;;;;6.57;5.17;;;;;;;7.74;85.77;97981.91;5491652;26;43008;-76
2024/04/17 03:45:22;;;;;;;6.37;5.13;;;;;;;7.70;86.03;97972.50;5490019;26;41738;-75
2024/04/17 03:47:52;;;;;;;5.10;4.27;;;;;;;7.75;85.89;97978.34;5492327;26;41323;-76
2024/04/17 03:50:18;;;;;;;4.37;3.50;;;;;;;7.79;85.87;97979.84;5491734;26;42732;-76
2024/04/17 03:52:47;;;;;;;5.57;4.50;;;;;;;7.82;85.37;97980.44;5491631;26;42243;-76
2024/04/17 03:55:13;;;;;;;4.33;3.80;;;;;;;7.84;85.50;97986.47;5491393;26;40984;-76
2024/04/17 03:57:42;;;;;;;5.33;4.03;;;;;;;7.87;85.54;97978.38;5492168;26;41320;-75
2024/04/17 04:00:13;;;;;;;4.93;4.13;;;;;;;7.90;85.46;97985.25;5490568;26;42836;-76
2024/04/17 04:02:43;;;;;;;4.30;3.90;;;;;;;7.88;85.54;97974.78;5492499;26;42331;-75
2024/04/17 04:05:09;;;;;;;3.87;3.47;;;;;;;7.94;85.09;97989.34;5492909;26;42235;-76
2024/04/17 04:07:38;;;;;;;4.60;4.10;;;;;;;7.88;85.40;97980.06;5491292;26;41705;-75
2024/04/17 04:10:06;;;;;;;5.07;4.07;;;;;;;7.99;85.21;97987.25;5460392;26;41259;-76
2024/04/17 04:12:35;;;;;;;4.93;4.00;;;;;;;7.91;85.37;97973.75;5460589;26;41695;-75
2024/04/17 04:15:02;;;;;;;4.07;3.60;;;;;;;7.92;85.60;97972.78;5490740;26;38671;-75
2024/04/17 04:17:35;;;;;;;5.30;4.33;;;;;;;8.03;85.44;97991.41;5491228;26;42906;-76
2024/04/17 04:20:02;;;;;;;5.17;3.83;;;;;;;8.04;85.11;97989.56;5492922;26;43954;-76
2024/04/17 04:22:31;;;;;;;4.30;3.90;;;;;;;7.89;85.12;97970.38;5458886;26;40628;-76
2024/04/17 04:24:58;;;;;;;4.33;3.90;;;;;;;7.95;85.31;97977.84;5460260;26;39731;-75
2024/04/17 04:27:27;;;;;;;7.20;4.83;;;;;;;7.90;85.65;97977.34;5492366;26;42124;-76
2024/04/17 04:29:54;;;;;;;5.33;4.80;;;;;;;8.01;85.81;97995.94;5492105;26;42729;-76
2024/04/17 04:32:23;;;;;;;6.43;5.07;;;;;;;8.01;85.56;97995.06;5492884;26;41974;-75
2024/04/17 04:34:52;;;;;;;5.60;4.77;;;;;;;8.02;85.81;97992.34;5490637;26;39975;-76
2024/04/17 04:37:23;;;;;;;5.33;4.80;;;;;;;7.98;85.81;97990.00;5492587;26;41776;-76
2024/04/17 04:39:50;;;;;;;6.20;5.17;;;;;;;8.00;85.74;97991.59;5460047;26;43335;-76
2024/04/17 04:42:19;;;;;;;5.63;4.70;;;;;;;8.11;85.80;98010.19;5490591;26;43840;-76
2024/04/17 04:44:45;;;;;;;5.07;4.50;;;;;;;8.05;85.92;97992.13;5490439;26;40367;-76
2024/04/17 04:47:15;;;;;;;5.60;5.00;;;;;;;8.08;86.23;97991.06;5460070;26;40443;-76
2024/04/17 04:49:41;;;;;;;5.30;4.80;;;;;;;8.13;86.09;98000.38;5459484;26;42843;-76
2024/04/17 04:52:13;;;;;;;4.40;3.93;;;;;;;7.94;85.77;97968.25;5459745;26;42315;-76
2024/04/17 04:54:40;;;;;;;4.27;3.67;;;;;;;8.24;86.16;98008.44;5490256;26;40449;-76
2024/04/17 04:57:09;;;;;;;4.77;4.23;;;;;;;8.18;85.90;98007.97;5492075;26;41388;-76
2024/04/17 04:59:35;;;;;;;6.03;4.60;;;;;;;8.16;86.05;98015.97;5491667;26;44460;-75
2024/04/17 05:02:04;;;;;;;5.30;4.37;;;;;;;8.29;85.89;98016.88;5491817;26;43150;-76
2024/04/17 05:04:31;;;;;;;5.00;4.30;;;;;;;8.21;86.04;98007.78;5490079;26;40367;-76
2024/04/17 05:07:00;;;;;;;4.83;4.37;;;;;;;8.26;86.04;98011.81;5490192;26;41849;-76
2024/04/17 05:09:29;;;;;;;6.37;5.40;;;;;;;8.37;86.00;98028.75;5489780;26;41657;-76
2024/04/17 05:11:58;;;;;;;5.63;4.33;;;;;;;8.34;86.17;98018.38;5490127;26;42286;-75
2024/04/17 05:14:25;;;;;;;5.80;5.17;;;;;;;8.28;86.16;98004.63;5489989;26;40038;-75
2024/04/17 05:16:54;;;;;;;5.67;4.83;;;;;;;8.44;86.27;98030.00;5491116;26;42894;-76
2024/04/17 05:19:20;;;;;;;6.00;5.00;;;;;;;8.39;85.98;98009.22;5489534;26;42658;-76
2024/04/17 05:21:49;;;;;;;5.80;4.57;;;;;;;8.51;85.96;98020.75;5489858;26;42088;-76
2024/04/17 05:24:16;;;;;;;5.30;4.50;;;;;;;8.59;86.30;98029.00;5491443;26;41149;-76
2024/04/17 05:26:48;;;;;;;6.20;5.17;;;;;;;8.58;85.82;98019.38;5489626;26;42743;-76
2024/04/17 05:29:14;;;;;;;5.00;4.10;;;;;;;8.70;85.72;98031.75;5489636;26;41375;-75
2024/04/17 05:31:44;;;;;;;5.90;5.30;;;;;;;8.69;85.78;98024.78;5489476;26;42327;-75
2024/04/17 05:34:10;;;;;;;4.60;4.20;;;;;;;8.84;85.54;98039.56;5493225;26;40207;-75
2024/04/17 05:36:40;;;;;;;6.43;4.90;;;;;;;8.84;85.76;98031.66;5492608;26;40260;-75
2024/04/17 05:39:06;;;;;;;6.17;5.30;;;;;;;8.90;86.13;98033.84;5462043;26;43859;-75
2024/04/17 05:41:35;;;;;;;6.10;4.60;;;;;;;8.90;85.76;98030.41;5492250;26;43192;-75
2024/04/17 05:44:04;;;;;;;6.00;4.37;;;;;;;9.03;86.12;98039.13;5492089;26;41045;-75
2024/04/17 05:46:34;;;;;;;5.33;4.53;;;;;;;9.00;85.99;98037.56;5493729;26;42656;-74
2024/04/17 05:49:00;;;;;;;5.07;4.27;;;;;;;9.05;85.76;98039.03;5493843;26;42600;-75
2024/04/17 05:51:29;;;;;;;5.50;4.73;;;;;;;9.04;85.80;98040.81;5493504;26;42042;-75
2024/04/17 05:53:56;;;;;;;5.27;4.77;;;;;;;9.00;85.63;98039.38;5491563;26;40020;-75
2024/04/17 05:56:25;;;;;;;5.40;4.80;;;;;;;8.93;85.43;98036.28;5494019;26;41638;-75
2024/04/17 05:58:52;;;;;;;5.63;4.77;;;;;;;8.98;85.90;98060.59;5493809;26;42957;-75
2024/04/17 06:01:26;;;;;;;5.07;4.57;;;;;;;8.78;86.18;98024.13;5492405;26;43276;-75
2024/04/17 06:03:52;;;;;;;5.20;4.27;;;;;;;8.90;86.16;98057.63;5492154;26;38797;-75
2024/04/17 06:06:21;;;;;;;4.30;3.60;;;;;;;8.88;86.09;98054.25;5492866;26;42938;-75
2024/04/17 06:08:48;;;;;;;3.30;3.00;;;;;;;8.81;85.90;98055.59;5491596;26;43675;-76
2024/04/17 06:11:17;;;;;;;3.50;3.07;;;;;;;8.68;86.05;98043.34;5493907;26;43268;-76
2024/04/17 06:13:44;;;;;;;3.57;2.67;;;;;;;8.71;86.09;98036.06;5492168;26;38227;-76
2024/04/17 06:16:13;;;;;;;2.87;2.63;;;;;;;8.79;85.80;98057.50;5492140;26;41671;-76
2024/04/17 06:18:42;;;;;;;3.47;2.80;;;;;;;8.68;85.66;98036.28;5492321;26;42858;-75
2024/04/17 06:21:12;;;;;;;2.60;2.40;;;;;;;8.80;85.57;98053.91;5492057;26;44509;-75
2024/04/17 06:23:38;;;;;;;3.23;2.83;;;;;;;8.71;85.63;98033.44;5492254;26;38752;-75
2024/04/17 06:26:07;;;;;;;3.70;2.90;;;;;;;8.95;85.12;98070.50;5493749;26;41798;-75
2024/04/17 06:28:34;;;;;;;2.83;2.40;;;;;;;8.98;85.43;98068.53;5493886;26;42733;-75
2024/04/17 06:31:03;;;;;;;3.17;2.83;;;;;;;9.05;85.00;98076.00;5493287;26;43298;-75
2024/04/17 06:33:29;;;;;;;2.93;2.57;;;;;;;9.17;84.90;98080.44;5492268;26;42564;-75
2024/04/17 06:36:01;;;;;;;2.23;2.03;;;;;;;9.19;84.56;98075.91;5491848;26;41699;-75
2024/04/17 06:38:27;;;;;;;2.87;2.40;;;;;;;9.29;83.80;98090.16;5493475;26;43854;-74
2024/04/17 06:40:57;;;;;;;2.70;2.40;;;;;;;9.44;84.08;98107.59;5491823;26;42151;-75
2024/04/17 06:43:23;;;;;;;2.63;2.10;;;;;;;9.55;83.96;98099.75;5461404;26;39830;-75
2024/04/17 06:45:52;;;;;;;2.67;2.47;;;;;;;9.66;83.84;98102.47;5491885;26;42840;-75
2024/04/17 06:48:19;;;;;;;2.50;2.30;;;;;;;9.73;83.32;98106.41;5492071;26;42855;-76
2024/04/17 06:50:48;;;;;;;2.80;2.23;;;;;;;9.87;83.04;98117.78;5491782;26;43289;-76
2024/04/17 06:53:18;;;;;;;2.67;2.30;;;;;;;9.93;82.27;98106.75;5461572;26;38490;-75
2024/04/17 06:55:47;;;;;;;2.83;2.40;;;;;;;9.91;81.96;98106.03;5493389;26;42617;-75
2024/04/17 06:58:13;;;;;;;2.87;2.60;;;;;;;10.05;81.50;98119.09;5492073;26;43698;-75
2024/04/17 07:00:42;;;;;;;2.60;2.40;;;;;;;10.32;81.29;98122.44;5491640;26;43650;-75
2024/04/17 07:03:09;;;;;;;3.00;2.10;;;;;;;10.62;80.85;98126.44;5491822;26;39887;-75
2024/04/17 07:05:38;;;;;;;3.97;2.57;;;;;;;10.92;80.48;98125.94;5493469;26;41740;-75
2024/04/17 07:08:05;;;;;;;2.03;1.93;;;;;;;11.22;80.06;98114.81;5491798;26;42613;-75
2024/04/17 07:10:36;;;;;;;2.80;2.23;;;;;;;11.18;78.12;98087.69;5493324;26;42180;-75
2024/04/17 07:13:03;;;;;;;2.70;2.33;;;;;;;11.19;77.33;98109.75;5461293;26;39940;-76
2024/04/17 07:15:33;;;;;;;2.90;1.97;;;;;;;11.26;75.61;98140.94;5491446;26;42090;-75
2024/04/17 07:18:01;;;;;;;2.30;2.10;;;;;;;11.22;76.13;98117.47;5493487;26;43969;-75
2024/04/17 07:20:30;;;;;;;2.40;2.20;;;;;;;11.44;75.32;98133.41;5492842;26;42289;-75
2024/04/17 07:22:57;;;;;;;2.30;2.10;;;;;;;11.42;75.30;98120.25;5493574;26;42072;-76
2024/04/17 07:25:26;;;;;;;2.40;2.20;;;;;;;11.82;76.48;98118.00;5493462;26;41507;-76
2024/04/17 07:27:55;;;;;;;2.80;2.13;;;;;;;12.32;76.50;98131.69;5493341;26;42657;-75
2024/04/17 07:30:24;;;;;;;1.93;1.83;;;;;;;12.61;74.90;98126.63;5492935;26;42092;-75
2024/04/17 07:32:51;;;;;;;2.87;2.30;;;;;;;13.07;73.61;98136.13;5491719;26;39261;-76
2024/04/17 07:35:21;;;;;;;2.40;2.13;;;;;;;13.41;71.77;98132.31;5493270;26;41693;-75
2024/04/17 07:37:47;;;;;;;2.60;2.40;;;;;;;13.78;70.03;98129.97;5493185;26;42927;-76
2024/04/17 07:40:17;;;;;;;2.80;2.60;;;;;;;14.46;71.17;98135.53;5493184;26;43288;-76
2024/04/17 07:42:46;;;;;;;2.50;2.30;;;;;;;14.87;69.83;98145.94;5493198;26;40082;-76
2024/04/17 07:45:18;;;;;;;2.47;2.27;;;;;;;14.76;66.58;98147.91;5490634;26;40258;-76
2024/04/17 07:47:45;;;;;;;2.30;2.10;;;;;;;14.53;66.03;98153.50;5491166;26;42002;-76
2024/04/17 07:50:14;;;;;;;2.53;1.87;;;;;;;14.17;64.39;98162.06;5492705;26;41841;-75
2024/04/17 07:52:48;;;;;;;2.37;2.13;;;;;;;13.82;63.77;98165.16;5494318;26;20351;-76
2024/04/17 07:55:18;;;;;;;2.07;1.73;;;;;;;13.48;64.19;98145.91;5492927;26;41690;-76
2024/04/17 07:57:44;;;;;;;1.77;1.67;;;;;;;13.37;64.37;98145.97;5492941;26;42824;-76
2024/04/17 08:00:14;;;;;;;2.23;1.70;;;;;;;13.40;64.61;98161.69;5492840;26;42389;-76
2024/04/17 08:02:45;;;;;;;2.67;1.67;;;;;;;13.36;65.51;98157.59;5493159;26;40043;-75
2024/04/17 08:05:14;;;;;;;2.33;2.13;;;;;;;13.66;65.56;98154.97;5492907;26;41579;-76
2024/04/17 08:07:41;;;;;;;2.60;2.27;;;;;;;14.46;64.20;98146.19;5492705;26;43046;-76
2024/04/17 08:10:11;;;;;;;2.10;1.90;;;;;;;15.54;63.00;98155.72;5492374;26;42109;-75
2024/04/17 08:12:40;;;;;;;2.40;2.20;;;;;;;16.33;60.26;98153.44;5491259;26;42456;-76
2024/04/17 08:15:10;;;;;;;2.13;1.90;;;;;;;16.84;57.54;98179.63;5490496;26;41841;-76
2024/04/17 08:17:37;;;;;;;3.57;2.47;;;;;;;17.97;54.60;98186.06;5491268;26;42761;-76
2024/04/17 08:20:10;;;;;;;1.90;1.80;;;;;;;18.37;52.82;98172.88;5492589;26;43309;-76
2024/04/17 08:22:36;;;;;;;2.57;2.00;;;;;;;18.21;52.31;98187.03;5490969;26;38788;-77
2024/04/17 08:25:06;;;;;;;4.00;1.97;;;;;;;17.72;49.40;98217.22;5490813;26;41951;-76
2024/04/17 08:27:32;;;;;;;1.50;1.40;;;;;;;17.16;51.11;98200.50;5492475;26;42848;-76
2024/04/17 08:30:05;;;;;;;3.10;1.50;;;;;;;16.69;52.06;98191.81;5492322;26;42095;-76
2024/04/17 08:32:32;;;;;;;2.07;1.70;;;;;;;15.98;52.61;98146.19;5492582;26;40213;-76
2024/04/17 08:35:01;;;;;;;1.87;1.50;;;;;;;15.93;52.55;98193.88;5492163;26;41661;-76
2024/04/17 08:37:30;;;;;;;2.57;2.03;;;;;;;15.73;54.07;98186.88;5491939;26;44027;-75
2024/04/17 08:39:59;;;;;;;1.77;1.60;;;;;;;15.56;54.89;98184.97;5490467;26;42356;-76
2024/04/17 08:42:28;;;;;;;2.23;1.47;;;;;;;15.41;55.71;98188.03;5476920;26;39959;-76
2024/04/17 08:44:57;;;;;;;1.87;1.63;;;;;;;15.20;55.66;98174.03;5470360;26;42692;-76
2024/04/17 08:47:25;;;;;;;3.20;1.67;;;;;;;15.12;55.79;98179.22;5463809;26;42811;-76
2024/04/17 08:49:56;;;;;;;3.20;2.30;;;;;;;15.09;55.43;98184.81;5455343;26;43367;-75
2024/04/17 08:52:22;;;;;;;2.67;2.20;;;;;;;15.19;55.49;98183.00;5455750;26;40941;-75
2024/04/17 08:54:55;;;;;;;2.53;2.20;;;;;;;16.40;55.00;98157.22;5455233;26;41513;-75
2024/04/17 08:57:22;;;;;;;2.63;2.20;;;;;;;19.01;50.05;98199.09;5455466;26;43784;-76
2024/04/17 08:59:51;;;;;;;2.07;1.97;;;;;;;19.82;48.25;98218.94;5454615;26;43052;-76
2024/04/17 09:02:18;;;;;;;1.97;1.80;;;;;;;21.47;44.69;98220.66;5455247;26;40986;-75
2024/04/17 09:04:48;;;;;;;2.87;1.80;;;;;;;23.74;41.54;98230.63;5453081;26;40749;-75
2024/04/17 09:07:15;;;;;;;2.20;1.73;;;;;;;25.46;34.71;98262.28;5455315;26;43441;-76
2024/04/17 09:09:45;;;;;;;2.83;1.50;;;;;;;26.83;36.12;98250.53;5457785;26;42147;-87
2024/04/17 09:12:14;;;;;;;1.30;1.20;;;;;;;27.95;33.91;98260.03;5427123;26;39466;-78
2024/04/17 09:14:43;;;;;;;1.92;1.50;;;;;;;28.43;33.24;98246.66;5456575;26;41738;-77
2024/04/17 09:17:10;;;;;;;2.85;1.40;;;;;;;28.98;30.78;98281.31;5458547;26;42734;-76
2024/04/17 09:19:39;;;;;;;4.15;1.33;;;;;;;29.14;30.20;98286.16;5458018;26;42187;-77
2024/04/17 09:22:05;;;;;;;2.03;1.25;;;;;;;29.27;29.15;98302.38;5456429;26;38999;-76
2024/04/17 09:24:41;;;;;;;2.70;1.00;;;;;;;29.27;29.42;98288.72;5455916;26;41739;-77
2024/04/17 09:27:15;;;;;;;1.60;1.00;;;;;;;29.86;28.16;98295.28;5458245;26;44086;-77
2024/04/17 09:29:44;;;;;;;2.45;1.02;;;;;;;30.34;25.92;98304.19;5457902;26;42290;-78
2024/04/17 09:32:15;;;;;;;2.05;1.10;;;;;;;30.26;27.60;98295.53;5458346;26;41326;-77
2024/04/17 09:34:44;;;;;;;4.22;1.60;;;;;;;29.23;26.80;98307.44;5457884;26;42157;-76
2024/04/17 09:37:11;;;;;;;1.90;0.93;;;;;;;26.82;27.83;98302.41;5457923;26;42556;-77
2024/04/17 09:39:46;;;;;;;3.03;1.10;;;;;;;24.81;29.87;98283.44;5456149;26;43029;-76
2024/04/17 09:42:16;;;;;;;2.10;1.23;;;;;;;22.84;32.65;98258.09;5457997;26;40056;-76
2024/04/17 09:44:47;;;;;;;2.93;1.33;;;;;;;21.37;34.71;98266.69;5457411;26;42711;-77
2024/04/17 09:47:17;;;;;;;1.43;1.00;;;;;;;20.01;37.40;98238.25;5457841;26;43876;-76
2024/04/17 09:49:47;;;;;;;2.87;0.97;;;;;;;19.26;39.37;98216.06;5457411;26;42067;-76
2024/04/17 09:52:16;;;;;;;1.40;1.00;;;;;;;18.64;40.66;98199.50;5457692;26;40923;-76
2024/04/17 09:54:46;;;;;;;3.77;1.50;;;;;;;18.26;41.04;98208.84;5455638;26;41613;-76
2024/04/17 09:57:16;;;;;;;2.77;1.23;;;;;;;18.02;42.60;98189.97;5457998;26;43690;-76
2024/04/17 09:59:46;;;;;;;2.10;1.00;;;;;;;18.40;42.61;98195.84;5457251;26;43371;-77
2024/04/17 10:02:17;;;;;;;1.77;0.90;;;;;;;18.75;43.82;98184.09;5457874;26;41187;-76
2024/04/17 10:04:49;;;;;;;1.03;0.87;;;;;;;18.95;43.24;98170.22;5457416;26;42823;-76
2024/04/17 10:07:24;;;;;;;2.10;1.10;;;;;;;19.24;43.50;98185.03;5455520;26;42972;-76
2024/04/17 10:09:55;;;;;;;2.10;1.03;;;;;;;19.45;43.44;98171.94;5455618;26;43307;-76
2024/04/17 10:12:24;;;;;;;1.20;1.10;;;;;;;19.89;42.06;98168.91;5457622;26;40080;-76
2024/04/17 10:14:56;;;;;;;2.13;1.00;;;;;;;20.51;41.80;98175.28;5455009;26;41772;-76
2024/04/17 10:17:22;;;;;;;2.57;1.37;;;;;;;21.14;40.77;98199.28;5455282;26;43486;-76
2024/04/17 10:19:52;;;;;;;2.63;1.10;;;;;;;21.33;39.69;98197.19;5456025;26;43160;-76
2024/04/17 10:22:19;;;;;;;1.17;1.03;;;;;;;21.22;39.31;98184.13;5457718;26;39965;-76
2024/04/17 10:24:48;;;;;;;2.17;1.00;;;;;;;21.50;40.13;98187.97;5456688;26;42962;-76
2024/04/17 10:27:16;;;;;;;1.90;1.37;;;;;;;21.50;39.68;98182.56;5455527;26;44414;-76
2024/04/17 10:29:48;;;;;;;2.93;1.20;;;;;;;21.63;37.98;98180.09;5456544;26;43457;-76
2024/04/17 10:32:15;;;;;;;1.80;1.20;;;;;;;22.04;38.49;98174.31;5457501;26;40173;-77
2024/04/17 10:34:45;;;;;;;4.73;1.10;;;;;;;23.43;38.05;98203.88;5456886;26;42604;-76
2024/04/17 10:37:14;;;;;;;3.40;0.97;;;;;;;23.70;34.05;98223.94;5457164;26;43679;-76
2024/04/17 10:39:44;;;;;;;1.50;0.93;;;;;;;23.00;33.14;98248.91;5456399;26;42174;-76
2024/04/17 10:42:15;;;;;;;1.20;0.70;;;;;;;22.14;33.80;98240.44;5457466;26;40844;-76
2024/04/17 10:44:52;;;;;;;2.33;1.17;;;;;;;22.28;34.42;98241.47;5456900;26;41801;-76
2024/04/17 10:47:20;;;;;;;2.37;0.70;;;;;;;23.76;32.63;98231.25;5457031;26;42925;-76
2024/04/17 10:49:56;;;;;;;1.50;0.90;;;;;;;24.63;32.69;98248.75;5456941;26;43044;-76
2024/04/17 10:52:23;;;;;;;1.50;0.80;;;;;;;25.41;31.13;98246.59;5457359;26;41098;-76
2024/04/17 10:54:59;;;;;;;1.47;0.87;;;;;;;26.68;28.62;98260.84;5455166;26;42865;-76
2024/04/17 11:01:47;;;;;;;1.77;0.93;;;;;;;27.18;28.52;98263.84;5382319;26;42641;-77
2024/04/17 11:04:13;;;;;;;0.93;0.67;;;;;;;26.32;27.61;98274.09;5382191;26;39954;-76
2024/04/17 11:06:43;;;;;;;3.30;0.90;;;;;;;25.76;28.67;98261.72;5381781;26;40852;-76
2024/04/17 11:09:09;;;;;;;1.43;0.80;;;;;;;25.80;27.55;98269.44;5381508;26;43937;-76
2024/04/17 11:11:38;;;;;;;2.40;0.70;;;;;;;26.67;28.36;98245.59;5381569;26;42155;-76
2024/04/17 11:14:13;;;;;;;1.47;0.77;;;;;;;28.04;27.82;98258.72;5381756;26;40015;-76
2024/04/17 11:16:42;;;;;;;2.53;1.00;;;;;;;28.17;26.37;98272.22;5352263;26;42052;-76
2024/04/17 11:19:11;;;;;;;1.80;0.70;;;;;;;27.38;27.10;98267.28;5441043;26;42620;-76
2024/04/17 11:21:40;;;;;;;2.10;0.90;;;;;;;27.25;27.16;98267.34;5456575;26;43151;-76
2024/04/17 11:24:16;;;;;;;2.23;0.80;;;;;;;27.34;26.27;98265.22;5456216;26;40308;-76
2024/04/17 11:26:46;;;;;;;3.03;1.03;;;;;;;26.71;26.85;98257.69;5456579;26;41862;-76
2024/04/17 11:29:14;;;;;;;2.00;0.87;;;;;;;25.99;27.01;98269.44;5456095;26;43733;-76
2024/04/17 11:31:45;;;;;;;2.57;1.10;;;;;;;25.95;29.21;98241.09;5455440;26;43364;-76
2024/04/17 11:34:21;;;;;;;2.50;0.93;;;;;;;25.91;28.04;98255.25;5457001;26;41956;-76
2024/04/17 11:36:51;;;;;;;1.93;0.70;;;;;;;25.10;28.38;98247.13;5456425;26;41641;-76
2024/04/17 11:39:18;;;;;;;1.30;0.80;;;;;;;24.55;27.78;98265.19;5456067;26;42820;-76
2024/04/17 11:41:51;;;;;;;1.47;0.80;;;;;;;25.08;29.26;98248.38;5456246;26;43191;-76
2024/04/17 11:44:18;;;;;;;2.07;0.80;;;;;;;25.08;29.15;98241.09;5456153;26;40954;-76
2024/04/17 11:46:47;;;;;;;1.37;0.63;;;;;;;24.36;27.26;98271.28;5456442;26;41742;-76
2024/04/17 11:49:13;;;;;;;0.97;0.63;;;;;;;23.32;27.87;98251.16;5456620;26;42926;-76
2024/04/17 11:51:45;;;;;;;1.83;0.70;;;;;;;22.54;28.84;98266.16;5456278;26;42216;-76
2024/04/17 11:54:12;;;;;;;4.27;0.90;;;;;;;21.93;28.58;98263.72;5454666;26;39187;-75